Time;durP1;ratioP1;P1;durP2;ratioP2;P2;SDS_P1;SDS_P2;PMS_P1;PMS_P2;Temp;Humidity;BMP_temperature;BMP_pressure;BME280_temperature;BME280_humidity;BME280_pressure;Samples;Min_cycle;Max_cycle;Signal;HPM_P1;HPM_P2
2021/04/04 00:01:51;;;;;;;20.73;4.13;;;;;;;9.21;47.77;102703.84;4896020;28;113658;-72
2021/04/04 00:04:17;;;;;;;20.60;4.25;;;;;;;9.25;47.76;102710.84;4913911;28;114060;-73
2021/04/04 00:06:44;;;;;;;20.17;3.88;;;;;;;9.28;47.56;102711.69;4913119;28;124242;-72
2021/04/04 00:09:10;;;;;;;15.65;3.88;;;;;;;9.32;47.78;102705.50;4914441;28;124225;-72
2021/04/04 00:11:39;;;;;;;17.65;4.03;;;;;;;9.35;47.75;102696.66;4888058;28;112923;-71
2021/04/04 00:14:08;;;;;;;18.10;3.90;;;;;;;9.41;47.83;102696.59;4891675;28;113440;-71
2021/04/04 00:16:34;;;;;;;17.13;4.22;;;;;;;9.46;47.22;102693.91;4912661;28;124364;-72
2021/04/04 00:19:01;;;;;;;22.90;4.00;;;;;;;9.50;47.28;102688.56;4897872;28;123537;-73
2021/04/04 00:21:28;;;;;;;22.02;3.90;;;;;;;9.53;47.60;102693.84;4913503;28;115079;-73
2021/04/04 00:23:55;;;;;;;16.13;3.83;;;;;;;9.57;47.53;102691.13;4913209;28;113883;-73
2021/04/04 00:26:21;;;;;;;23.73;4.85;;;;;;;9.61;47.69;102693.75;4911225;28;123936;-73
2021/04/04 00:28:48;;;;;;;16.58;3.90;;;;;;;9.62;47.31;102690.19;4913055;28;124864;-72
2021/04/04 00:31:14;;;;;;;16.75;4.57;;;;;;;9.61;47.17;102688.44;4895617;28;114504;-73
2021/04/04 00:33:41;;;;;;;18.10;4.43;;;;;;;9.58;47.41;102682.31;4895987;28;113265;-73
2021/04/04 00:36:08;;;;;;;18.63;4.00;;;;;;;9.56;47.54;102687.63;4911098;28;124229;-73
2021/04/04 00:38:34;;;;;;;15.25;4.22;;;;;;;9.55;47.49;102689.41;4894766;28;123225;-73
2021/04/04 00:41:02;;;;;;;14.52;4.15;;;;;;;9.54;47.18;102692.06;4894925;28;114038;-73
2021/04/04 00:43:29;;;;;;;19.45;4.40;;;;;;;9.54;46.85;102684.97;4912279;28;115351;-73
2021/04/04 00:45:56;;;;;;;22.20;4.10;;;;;;;9.54;47.05;102687.63;4912318;28;124887;-73
2021/04/04 00:48:22;;;;;;;16.80;3.55;;;;;;;9.55;46.84;102689.41;4913316;28;124405;-73
2021/04/04 00:50:49;;;;;;;18.38;4.00;;;;;;;9.55;46.97;102684.09;4895351;28;113220;-73
2021/04/04 00:53:17;;;;;;;15.13;3.95;;;;;;;9.58;46.93;102687.59;4913278;28;114615;-73
2021/04/04 00:55:43;;;;;;;17.45;3.92;;;;;;;9.61;46.76;102687.59;4911973;28;123966;-73
2021/04/04 00:58:10;;;;;;;16.98;4.45;;;;;;;9.63;47.08;102688.44;4912780;28;124636;-73
2021/04/04 01:00:37;;;;;;;18.83;4.22;;;;;;;9.64;46.75;102693.69;4912852;28;114254;-73
2021/04/04 01:03:04;;;;;;;16.85;4.00;;;;;;;9.64;46.62;102687.53;4911881;28;113130;-73
2021/04/04 01:05:41;;;;;;;16.90;3.90;;;;;;;9.65;46.92;102684.00;4892677;28;123435;-73
2021/04/04 01:08:08;;;;;;;17.05;4.00;;;;;;;9.66;46.66;102686.63;4907792;28;123954;-73
2021/04/04 01:10:39;;;;;;;18.40;4.13;;;;;;;9.68;47.15;102683.94;4901278;28;114482;-73
2021/04/04 01:13:18;;;;;;;17.77;4.18;;;;;;;9.70;46.87;102687.44;4912792;28;114348;-73
2021/04/04 01:16:06;;;;;;;16.67;4.22;;;;;;;9.69;46.97;102691.00;4913480;28;123759;-72
2021/04/04 01:18:48;;;;;;;15.45;4.40;;;;;;;9.71;46.86;102689.22;4899682;28;124071;-73
2021/04/04 01:21:29;;;;;;;18.13;4.30;;;;;;;9.73;47.29;102687.44;4910868;28;114128;-72
2021/04/04 01:24:25;;;;;;;21.65;4.78;;;;;;;9.73;47.16;102687.44;4915491;28;114322;-72
2021/04/04 01:27:17;;;;;;;14.38;4.13;;;;;;;9.72;46.87;102680.41;4916962;28;123875;-73
2021/04/04 01:29:45;;;;;;;18.52;3.80;;;;;;;9.73;46.88;102687.44;4920275;28;124369;-71
2021/04/04 01:32:12;;;;;;;18.90;3.83;;;;;;;9.71;46.84;102678.63;4911312;28;115127;-73
2021/04/04 01:34:39;;;;;;;17.58;3.78;;;;;;;9.71;46.67;102678.63;4894263;28;115347;-71
2021/04/04 01:37:10;;;;;;;20.33;4.45;;;;;;;9.67;46.50;102676.94;4910994;28;124137;-73
2021/04/04 01:39:42;;;;;;;18.25;4.22;;;;;;;9.67;46.47;102677.78;4878368;28;123490;-72
2021/04/04 01:42:11;;;;;;;17.02;4.10;;;;;;;9.69;46.99;102672.50;4878379;28;113808;-71
2021/04/04 01:44:42;;;;;;;17.40;4.35;;;;;;;9.70;46.98;102672.47;4894864;28;113109;-71
2021/04/04 01:47:10;;;;;;;23.65;4.45;;;;;;;9.71;46.65;102658.34;4893493;28;123107;-73
2021/04/04 01:49:39;;;;;;;17.42;4.15;;;;;;;9.71;46.63;102673.34;4879527;28;123274;-73
2021/04/04 01:52:07;;;;;;;15.52;4.00;;;;;;;9.68;46.76;102666.34;4911532;28;114621;-73
2021/04/04 01:54:35;;;;;;;18.15;4.13;;;;;;;9.68;47.07;102668.06;4894952;28;113851;-71
2021/04/04 01:57:02;;;;;;;18.83;4.15;;;;;;;9.69;47.14;102669.84;4893143;28;123183;-72
2021/04/04 01:59:32;;;;;;;19.00;4.30;;;;;;;9.68;47.06;102668.06;4911755;28;124153;-72
2021/04/04 02:02:00;;;;;;;17.75;4.20;;;;;;;9.68;46.55;102668.06;4895000;28;114658;-73
2021/04/04 02:04:28;;;;;;;18.58;3.80;;;;;;;9.69;46.98;102659.25;4895385;28;114191;-73
2021/04/04 02:06:56;;;;;;;19.17;4.03;;;;;;;9.70;46.73;102661.00;4882450;28;123159;-73
2021/04/04 02:09:24;;;;;;;15.30;3.85;;;;;;;9.70;47.04;102656.59;4894682;28;122136;-73
2021/04/04 02:11:53;;;;;;;16.02;3.88;;;;;;;9.71;47.11;102652.19;4883541;28;114045;-73
2021/04/04 02:14:22;;;;;;;18.08;4.28;;;;;;;9.74;46.89;102654.78;4914087;28;114729;-73
2021/04/04 02:16:52;;;;;;;20.83;3.97;;;;;;;9.75;47.09;102656.53;4910942;28;124169;-73
2021/04/04 02:19:22;;;;;;;20.70;4.43;;;;;;;9.76;46.90;102650.34;4898558;28;124077;-73
2021/04/04 02:21:51;;;;;;;19.10;4.25;;;;;;;9.78;46.89;102645.91;4886666;28;114671;-73
2021/04/04 02:24:20;;;;;;;14.70;3.80;;;;;;;9.79;46.99;102639.72;4909803;28;115378;-73
2021/04/04 02:26:47;;;;;;;16.83;4.70;;;;;;;9.79;47.05;102639.72;4907935;28;124714;-73
2021/04/04 02:29:14;;;;;;;14.93;3.90;;;;;;;9.80;47.02;102635.31;4913868;28;124851;-74
2021/04/04 02:31:45;;;;;;;19.27;4.40;;;;;;;9.82;47.05;102644.97;4912204;28;114275;-72
2021/04/04 02:34:19;;;;;;;18.73;4.00;;;;;;;9.83;46.88;102641.44;4910008;28;114108;-73
2021/04/04 02:36:46;;;;;;;16.35;4.20;;;;;;;9.83;46.93;102646.75;4895502;28;124622;-71
2021/04/04 02:39:22;;;;;;;16.48;3.85;;;;;;;9.84;47.14;102643.19;4907916;28;124479;-73
2021/04/04 02:41:49;;;;;;;19.63;4.40;;;;;;;9.86;47.20;102641.41;4897605;28;113686;-71
2021/04/04 02:44:16;;;;;;;14.65;3.70;;;;;;;9.88;46.90;102644.88;4894273;28;113035;-71
2021/04/04 02:46:48;;;;;;;16.67;3.97;;;;;;;9.89;46.99;102640.50;4910782;28;124775;-71
2021/04/04 02:49:15;;;;;;;17.92;3.90;;;;;;;9.91;46.97;102633.41;4923500;28;125120;-71
2021/04/04 02:51:47;;;;;;;15.70;4.05;;;;;;;9.90;46.80;102637.81;4917119;28;114767;-72
2021/04/04 02:54:19;;;;;;;12.80;3.47;;;;;;;9.91;46.92;102644.00;4923469;28;113830;-73
2021/04/04 02:56:48;;;;;;;16.30;4.15;;;;;;;9.91;47.20;102644.88;4918741;28;124306;-71
2021/04/04 02:59:25;;;;;;;21.83;4.30;;;;;;;9.94;47.30;102643.94;4931769;28;124107;-71
2021/04/04 03:01:57;;;;;;;17.27;4.20;;;;;;;9.94;46.89;102644.84;4898698;28;113955;-72
2021/04/04 03:04:25;;;;;;;16.50;3.55;;;;;;;9.89;47.32;102641.38;4898101;28;113671;-73
2021/04/04 03:06:53;;;;;;;13.63;3.75;;;;;;;9.87;47.16;102637.88;4895794;28;123183;-73
2021/04/04 03:09:21;;;;;;;14.98;3.72;;;;;;;9.86;47.00;102636.09;4926456;28;124114;-73
2021/04/04 03:11:48;;;;;;;13.02;3.63;;;;;;;9.87;47.50;102631.66;4910641;28;114121;-73
2021/04/04 03:14:16;;;;;;;15.13;3.72;;;;;;;9.90;47.45;102636.94;4902839;28;113108;-71
2021/04/04 03:16:44;;;;;;;13.77;3.60;;;;;;;9.92;47.65;102633.38;4914297;28;122826;-72
2021/04/04 03:19:15;;;;;;;16.83;4.10;;;;;;;9.93;47.02;102629.84;4911521;28;124321;-72
2021/04/04 03:21:44;;;;;;;15.63;4.10;;;;;;;9.94;47.45;102634.25;4896963;28;113770;-73
2021/04/04 03:24:13;;;;;;;14.85;4.00;;;;;;;9.94;47.32;102626.31;4917575;28;113803;-72
2021/04/04 03:26:42;;;;;;;20.10;4.07;;;;;;;9.96;47.39;102630.69;4902061;28;124496;-71
2021/04/04 03:29:10;;;;;;;17.58;4.30;;;;;;;9.93;47.31;102621.91;4911017;28;124696;-72
2021/04/04 03:31:38;;;;;;;12.02;3.90;;;;;;;9.93;47.49;102618.38;4889414;28;114045;-73
2021/04/04 03:34:06;;;;;;;14.38;3.80;;;;;;;9.96;47.61;102625.38;4917014;23;114597;-66
2021/04/04 03:36:33;;;;;;;17.05;4.00;;;;;;;9.96;47.60;102615.66;4911935;28;123901;-66
2021/04/04 03:39:00;;;;;;;13.63;3.53;;;;;;;9.98;47.29;102618.31;4923991;28;123757;-65
2021/04/04 03:41:28;;;;;;;15.32;3.70;;;;;;;10.00;47.17;102609.47;4929939;28;114255;-67
2021/04/04 03:43:56;;;;;;;16.75;3.63;;;;;;;10.01;47.29;102607.69;4915965;28;113781;-65
2021/04/04 03:46:24;;;;;;;14.15;3.55;;;;;;;10.03;47.42;102600.59;4930824;28;124931;-65
2021/04/04 03:48:54;;;;;;;17.88;3.80;;;;;;;10.03;47.37;102603.25;4915416;28;123567;-65
2021/04/04 03:51:25;;;;;;;13.93;3.95;;;;;;;10.05;47.63;102598.78;4916398;28;113494;-65
2021/04/04 03:53:54;;;;;;;15.32;3.40;;;;;;;10.08;47.67;102604.06;4920364;28;114578;-65
2021/04/04 03:56:27;;;;;;;12.25;3.50;;;;;;;10.07;47.71;102607.59;4932622;28;124612;-65
2021/04/04 03:58:56;;;;;;;16.02;3.80;;;;;;;10.05;47.48;102604.09;4929781;28;124471;-65
2021/04/04 04:01:25;;;;;;;15.57;3.63;;;;;;;10.03;47.35;102611.19;4932775;28;115095;-64
2021/04/04 04:03:53;;;;;;;10.95;3.53;;;;;;;10.02;47.54;102614.72;4911368;28;115215;-65
2021/04/04 04:06:21;;;;;;;14.48;3.50;;;;;;;10.00;47.67;102611.22;4922523;28;124235;-65
2021/04/04 04:08:49;;;;;;;12.65;3.70;;;;;;;9.98;47.92;102610.38;4901329;28;123427;-65
2021/04/04 04:11:17;;;;;;;13.63;3.30;;;;;;;9.98;47.86;102603.28;4932838;28;114999;-65
2021/04/04 04:13:44;;;;;;;16.35;3.70;;;;;;;9.98;47.90;102598.00;4931378;28;114708;-65
2021/04/04 04:16:12;;;;;;;14.00;3.40;;;;;;;9.99;48.26;102599.75;4933669;28;125225;-65
2021/04/04 04:18:45;;;;;;;12.85;3.40;;;;;;;10.01;48.03;102597.97;4933628;28;124601;-65
2021/04/04 04:21:14;;;;;;;18.73;3.95;;;;;;;10.02;47.93;102601.47;4886997;28;112894;-65
2021/04/04 04:23:41;;;;;;;19.88;3.83;;;;;;;10.02;47.94;102598.81;4915351;28;114174;-65
2021/04/04 04:26:12;;;;;;;16.00;3.90;;;;;;;10.01;48.14;102602.38;4929920;28;124049;-65
2021/04/04 04:28:41;;;;;;;15.15;4.50;;;;;;;10.01;48.02;102597.09;4920003;28;123952;-65
2021/04/04 04:31:11;;;;;;;12.60;3.05;;;;;;;10.00;48.10;102597.97;4913750;28;114574;-65
2021/04/04 04:33:43;;;;;;;14.43;3.60;;;;;;;10.00;48.05;102595.31;4906742;28;113861;-66
2021/04/04 04:36:10;;;;;;;17.00;3.25;;;;;;;9.98;48.08;102598.00;4929314;28;123874;-65
2021/04/04 04:38:41;;;;;;;17.92;3.55;;;;;;;9.97;47.83;102600.69;4933016;28;124925;-65
2021/04/04 04:41:10;;;;;;;14.93;3.10;;;;;;;9.94;47.61;102591.91;4899911;28;114240;-65
2021/04/04 04:43:39;;;;;;;16.38;3.67;;;;;;;9.93;47.53;102589.25;4932220;28;114234;-65
2021/04/04 04:46:06;;;;;;;13.20;3.20;;;;;;;9.91;47.77;102589.28;4914564;28;123755;-65
2021/04/04 04:48:34;;;;;;;13.85;3.00;;;;;;;9.90;47.60;102584.88;4914253;28;123233;-65
2021/04/04 04:51:02;;;;;;;14.10;3.13;;;;;;;9.91;47.71;102586.63;4915058;28;113987;-65
2021/04/04 04:53:28;;;;;;;19.05;3.88;;;;;;;9.91;47.73;102586.63;4900605;28;114114;-65
2021/04/04 04:56:00;;;;;;;13.73;2.80;;;;;;;9.91;47.69;102586.63;4931671;28;124045;-65
2021/04/04 04:58:29;;;;;;;9.80;2.90;;;;;;;9.93;47.55;102584.84;4899989;28;123279;-65
2021/04/04 05:01:00;;;;;;;12.50;3.13;;;;;;;9.92;48.00;102583.06;4915359;28;114659;-65
2021/04/04 05:03:27;;;;;;;14.00;2.97;;;;;;;9.94;47.98;102581.31;4913908;28;113885;-65
2021/04/04 05:05:58;;;;;;;11.63;2.63;;;;;;;9.94;47.68;102583.97;4929873;28;124750;-65
2021/04/04 05:08:26;;;;;;;9.85;2.45;;;;;;;9.93;47.85;102583.97;4928214;28;124827;-65
2021/04/04 05:10:53;;;;;;;11.45;3.15;;;;;;;9.94;48.09;102586.59;4913128;28;114039;-65
2021/04/04 05:13:20;;;;;;;16.67;3.22;;;;;;;9.93;48.14;102582.19;4930925;28;114120;-65
2021/04/04 05:15:49;;;;;;;14.45;3.38;;;;;;;9.91;47.95;102581.34;4897604;28;123636;-65
2021/04/04 05:18:16;;;;;;;13.38;3.28;;;;;;;9.90;48.17;102584.88;4927759;28;124687;-65
2021/04/04 05:20:45;;;;;;;14.88;3.40;;;;;;;9.88;48.09;102591.97;4910062;28;114187;-65
2021/04/04 05:23:19;;;;;;;13.57;3.35;;;;;;;9.88;48.51;102580.50;4931281;28;114089;-65
2021/04/04 05:25:47;;;;;;;12.03;3.63;;;;;;;9.90;48.38;102591.94;4926487;28;123691;-65
2021/04/04 05:28:13;;;;;;;14.95;3.70;;;;;;;9.90;48.34;102579.56;4913378;28;123532;-64
2021/04/04 05:30:41;;;;;;;13.23;3.50;;;;;;;9.91;48.74;102575.19;4913902;28;114304;-64
2021/04/04 05:33:07;;;;;;;12.50;3.92;;;;;;;9.92;48.32;102576.91;4931015;28;115215;-65
2021/04/04 05:35:40;;;;;;;13.52;3.80;;;;;;;9.96;48.67;102585.69;4914023;28;122799;-65
2021/04/04 05:38:10;;;;;;;15.25;3.88;;;;;;;9.98;48.55;102582.09;4899958;28;122800;-64
2021/04/04 05:40:38;;;;;;;15.20;3.80;;;;;;;10.03;48.40;102584.72;4931613;28;115935;-65
2021/04/04 05:43:12;;;;;;;10.23;3.58;;;;;;;10.04;48.22;102575.84;4931316;28;115070;-65
2021/04/04 05:45:51;;;;;;;16.20;4.07;;;;;;;10.06;48.26;102579.38;4902420;28;124663;-65
2021/04/04 05:48:25;;;;;;;12.90;3.90;;;;;;;10.06;48.20;102569.66;4913378;28;124194;-66
2021/04/04 05:51:29;;;;;;;15.70;3.88;;;;;;;10.07;48.06;102571.38;4930787;28;114287;-66
2021/04/04 05:54:33;;;;;;;16.60;3.78;;;;;;;10.07;48.51;102571.38;4918786;28;113900;-65
2021/04/04 05:57:08;;;;;;;12.95;3.78;;;;;;;10.11;48.32;102582.81;4899297;28;123501;-65
2021/04/04 06:00:04;;;;;;;19.00;4.25;;;;;;;10.12;48.48;102568.69;4930918;28;124291;-66
2021/04/04 06:02:56;;;;;;;14.35;3.97;;;;;;;10.16;48.14;102575.69;4904114;28;114780;-66
2021/04/04 06:05:41;;;;;;;14.02;3.47;;;;;;;10.18;48.14;102571.22;4926356;28;114331;-65
2021/04/04 06:08:36;;;;;;;15.15;3.80;;;;;;;10.18;48.27;102579.19;4912890;28;122979;-65
2021/04/04 06:11:25;;;;;;;13.15;3.63;;;;;;;10.17;48.20;102571.25;4915873;28;123944;-68
2021/04/04 06:14:22;;;;;;;13.77;4.55;;;;;;;10.13;48.38;102575.72;4912304;28;113417;-65
2021/04/04 06:17:02;;;;;;;13.90;4.25;;;;;;;10.16;48.48;102569.53;4929746;28;114115;-65
2021/04/04 06:19:36;;;;;;;16.52;4.20;;;;;;;10.16;48.22;102570.38;4915840;28;123921;-66
2021/04/04 06:22:20;;;;;;;13.05;3.97;;;;;;;10.18;48.25;102573.88;4911386;28;123436;-66
2021/04/04 06:24:55;;;;;;;14.38;3.58;;;;;;;10.18;48.19;102571.22;4919345;28;113320;-66
2021/04/04 06:27:36;;;;;;;14.40;4.07;;;;;;;10.20;48.42;102561.50;4927061;28;114996;-65
2021/04/04 06:33:42;;;;;;;19.30;3.92;;;;;;;10.26;48.64;102571.97;4920789;28;123106;-65
2021/04/04 06:36:27;;;;;;;12.60;3.85;;;;;;;10.27;48.08;102578.16;4917401;28;115361;-65
2021/04/04 06:39:08;;;;;;;13.43;3.83;;;;;;;10.25;48.21;102570.25;4905296;28;114103;-65
2021/04/04 06:41:51;;;;;;;14.15;3.67;;;;;;;10.26;48.08;102582.56;4912992;28;124318;-65
2021/04/04 06:44:41;;;;;;;16.15;4.18;;;;;;;10.27;48.29;102584.34;4912269;28;123171;-65
2021/04/04 06:47:45;;;;;;;16.92;4.55;;;;;;;10.29;48.32;102577.22;4915106;28;115061;-65
2021/04/04 06:50:18;;;;;;;17.80;4.82;;;;;;;10.31;48.40;102585.19;4928337;28;114201;-65
2021/04/04 06:53:25;;;;;;;14.15;4.40;;;;;;;10.32;48.61;102582.53;4929115;28;124476;-65
2021/04/04 06:56:23;;;;;;;18.77;4.95;;;;;;;10.37;48.25;102573.63;4901301;28;123718;-65
2021/04/04 06:59:05;;;;;;;17.60;4.57;;;;;;;10.41;48.30;102577.97;4930064;28;114328;-65
2021/04/04 07:01:58;;;;;;;13.63;4.22;;;;;;;10.45;48.47;102582.31;4929516;28;114283;-65
2021/04/04 07:04:36;;;;;;;16.13;3.97;;;;;;;10.47;48.18;102581.41;4901401;28;125049;-65
2021/04/04 07:07:41;;;;;;;20.38;4.20;;;;;;;10.49;48.62;102578.69;4925240;28;125310;-65
2021/04/04 07:10:29;;;;;;;12.48;3.42;;;;;;;10.50;48.27;102577.81;4900068;28;113984;-65
2021/04/04 07:13:13;;;;;;;12.52;3.20;;;;;;;10.49;48.51;102579.59;4917840;28;114306;-65
2021/04/04 07:16:20;;;;;;;13.77;3.00;;;;;;;10.51;48.60;102576.94;4894889;28;124089;-65
2021/04/04 07:19:08;;;;;;;14.43;3.50;;;;;;;10.53;48.60;102569.84;4903929;28;124525;-66
2021/04/04 07:22:18;;;;;;;12.98;2.75;;;;;;;10.54;48.23;102571.56;4920738;28;114315;-66
2021/04/04 07:25:04;;;;;;;10.68;2.80;;;;;;;10.52;48.18;102558.34;4904947;28;113091;-66
2021/04/04 07:28:01;;;;;;;10.73;2.88;;;;;;;10.53;48.42;102559.22;4931559;28;124377;-66
2021/04/04 07:30:38;;;;;;;13.75;2.60;;;;;;;10.56;48.45;102560.94;4917326;28;123970;-65
2021/04/04 07:33:24;;;;;;;9.40;2.30;;;;;;;10.57;48.27;102555.63;4924654;28;115717;-66
2021/04/04 07:36:19;;;;;;;9.43;2.70;;;;;;;10.59;48.42;102553.81;4919843;28;114307;-65
2021/04/04 07:38:57;;;;;;;11.27;2.35;;;;;;;10.59;48.21;102553.81;4926854;28;124522;-67
2021/04/04 07:41:42;;;;;;;10.85;2.40;;;;;;;10.57;48.20;102550.31;4935459;28;124240;-65
2021/04/04 07:44:41;;;;;;;10.15;2.75;;;;;;;10.58;48.66;102559.16;4934015;28;114082;-65
2021/04/04 07:47:47;;;;;;;8.23;2.47;;;;;;;10.59;48.41;102555.59;4927583;28;112961;-64
2021/04/04 07:50:23;;;;;;;8.57;2.38;;;;;;;10.59;47.89;102548.53;4931228;28;124250;-67
2021/04/04 07:53:08;;;;;;;10.88;2.10;;;;;;;10.59;48.33;102551.16;4916005;28;123900;-66
2021/04/04 07:55:41;;;;;;;9.50;2.47;;;;;;;10.60;47.96;102558.19;4918061;28;113998;-67
2021/04/04 07:58:17;;;;;;;10.00;2.63;;;;;;;10.61;48.35;102556.44;4904630;28;113863;-67
2021/04/04 08:00:52;;;;;;;14.00;3.00;;;;;;;10.59;48.05;102553.81;4900767;28;123860;-67
2021/04/04 08:03:31;;;;;;;7.82;2.15;;;;;;;10.60;48.04;102549.38;4913166;28;122794;-67
2021/04/04 08:06:06;;;;;;;9.82;2.45;;;;;;;10.58;48.35;102554.72;4887047;28;113331;-66
2021/04/04 08:08:56;;;;;;;12.52;3.47;;;;;;;10.57;48.08;102566.22;4927987;28;114452;-65
2021/04/04 08:11:52;;;;;;;10.82;2.60;;;;;;;10.56;48.15;102561.81;4927604;28;124768;-65
2021/04/04 08:14:48;;;;;;;11.15;3.05;;;;;;;10.58;48.04;102560.00;4928016;28;124077;-64
2021/04/04 08:17:15;;;;;;;;;;;;;;;10.61;47.87;102567.03;4921919;28;115216;-65
2021/04/04 08:19:44;;;;;;;11.30;2.72;;;;;;;10.63;48.00;102566.09;4916317;28;113817;-65
2021/04/04 08:22:16;;;;;;;9.85;2.85;;;;;;;10.63;47.60;102566.09;4929700;28;124778;-66
2021/04/04 08:24:47;;;;;;;10.63;2.35;;;;;;;10.64;47.85;102559.03;4928878;28;123830;-64
2021/04/04 08:27:35;;;;;;;10.45;2.67;;;;;;;10.65;47.89;102569.59;4912471;28;115201;-65
2021/04/04 08:30:04;;;;;;;9.32;2.40;;;;;;;10.67;47.97;102562.50;4929404;28;115101;-65
2021/04/04 08:32:46;;;;;;;10.15;2.35;;;;;;;10.68;47.82;102564.25;4926661;28;124766;-64
2021/04/04 08:35:27;;;;;;;9.63;2.78;;;;;;;10.73;48.15;102561.50;4928611;28;124388;-65
2021/04/04 08:38:17;;;;;;;13.60;2.95;;;;;;;10.79;47.94;102566.69;4927549;28;115083;-65
2021/04/04 08:40:46;;;;;;;8.02;2.33;;;;;;;10.84;47.96;102566.63;4902268;28;113179;-65
2021/04/04 08:43:15;;;;;;;10.15;2.80;;;;;;;10.86;47.98;102573.63;4924005;28;123591;-65
2021/04/04 08:45:56;;;;;;;13.35;3.10;;;;;;;10.88;48.06;102573.63;4912252;28;123526;-64
2021/04/04 08:48:25;;;;;;;7.88;3.10;;;;;;;10.88;48.07;102570.97;4929842;28;114596;-65
2021/04/04 08:50:53;;;;;;;12.20;2.50;;;;;;;10.87;48.13;102569.22;4932233;28;113968;-65
2021/04/04 08:53:39;;;;;;;6.85;2.42;;;;;;;10.85;48.23;102569.25;4913593;28;124565;-65
2021/04/04 08:56:05;;;;;;;;;;;;;;;10.86;48.26;102567.47;4901028;28;124551;-66
2021/04/04 08:58:45;;;;;;;8.38;2.92;;;;;;;10.89;48.09;102562.13;4902377;28;114109;-66
2021/04/04 09:01:18;;;;;;;10.30;2.47;;;;;;;10.92;47.87;102562.03;4910411;28;113974;-65
2021/04/04 09:03:51;;;;;;;10.82;2.70;;;;;;;10.92;48.24;102567.34;4929685;28;124098;-65
2021/04/04 09:06:18;;;;;;;8.80;2.72;;;;;;;10.92;48.27;102567.34;4931637;28;124686;-65
2021/04/04 09:08:46;;;;;;;8.82;2.70;;;;;;;10.93;47.90;102561.16;4909995;28;113110;-64
2021/04/04 09:11:13;;;;;;;10.25;2.80;;;;;;;10.94;47.78;102554.94;4928399;28;114077;-64
2021/04/04 09:13:41;;;;;;;8.70;2.65;;;;;;;10.96;48.03;102558.44;4894234;28;124137;-64
2021/04/04 09:16:14;;;;;;;7.70;2.47;;;;;;;10.94;47.85;102549.63;4920612;28;123309;-64
2021/04/04 09:18:46;;;;;;;8.57;2.58;;;;;;;10.93;48.04;102558.50;4905237;28;114044;-64
2021/04/04 09:21:14;;;;;;;10.38;2.83;;;;;;;10.93;48.27;102553.19;4932648;28;114434;-63
2021/04/04 09:23:44;;;;;;;8.93;2.53;;;;;;;10.94;47.85;102554.94;4927198;28;124070;-64
2021/04/04 09:26:17;;;;;;;10.13;2.90;;;;;;;10.99;47.82;102555.72;4928604;28;96909;-67
2021/04/04 09:28:45;;;;;;;9.35;2.88;;;;;;;11.03;47.99;102560.06;4930394;28;114758;-64
2021/04/04 09:31:28;;;;;;;8.63;2.55;;;;;;;11.06;47.77;102549.41;4929518;28;112905;-65
2021/04/04 09:34:05;;;;;;;9.90;2.90;;;;;;;11.09;47.74;102549.38;4930672;23;124473;-70
2021/04/04 09:36:44;;;;;;;12.25;2.90;;;;;;;11.11;47.82;102538.69;4905439;28;123412;-70
2021/04/04 09:39:14;;;;;;;11.10;3.30;;;;;;;11.16;47.81;102546.59;4906330;28;114623;-70
2021/04/04 09:41:45;;;;;;;8.48;2.60;;;;;;;11.19;47.68;102546.50;4901368;28;114354;-70
2021/04/04 09:44:12;;;;;;;9.85;2.50;;;;;;;11.22;47.58;102543.78;4894383;28;124150;-70
2021/04/04 09:46:50;;;;;;;8.13;2.58;;;;;;;11.21;47.56;102537.63;4891928;28;124317;-71
2021/04/04 09:49:45;;;;;;;7.88;2.53;;;;;;;11.22;47.39;102544.66;4907339;28;114113;-70
2021/04/04 09:52:23;;;;;;;5.65;2.53;;;;;;;11.23;47.40;102541.13;4891204;28;114443;-71
2021/04/04 09:55:03;;;;;;;8.15;2.75;;;;;;;11.22;47.19;102541.13;4877548;28;123374;-69
2021/04/04 09:57:55;;;;;;;11.23;2.95;;;;;;;11.24;47.50;102531.38;4891970;28;124531;-70
2021/04/04 10:00:36;;;;;;;8.45;3.05;;;;;;;11.23;47.53;102533.16;4909771;28;113313;-70
2021/04/04 10:03:11;;;;;;;9.93;2.90;;;;;;;11.27;47.15;102531.31;4898477;28;113231;-70
2021/04/04 10:05:43;;;;;;;7.78;2.90;;;;;;;11.32;47.07;102529.47;4890094;28;125427;-70
2021/04/04 10:08:12;;;;;;;8.10;2.90;;;;;;;11.37;47.45;102532.88;4903827;28;123757;-70
2021/04/04 10:10:41;;;;;;;7.35;2.90;;;;;;;11.42;47.06;102530.13;4892526;28;115150;-70
2021/04/04 10:13:09;;;;;;;8.60;2.95;;;;;;;11.41;46.90;102523.94;4901557;28;114824;-72
2021/04/04 10:15:49;;;;;;;7.50;2.70;;;;;;;11.39;46.91;102515.13;4891288;28;122899;-73
2021/04/04 10:18:17;;;;;;;10.02;3.00;;;;;;;11.41;46.84;102513.31;4889237;28;124435;-72
2021/04/04 10:20:54;;;;;;;11.05;2.83;;;;;;;11.43;46.88;102510.63;4892113;28;113050;-72
2021/04/04 10:23:28;;;;;;;7.20;2.80;;;;;;;11.49;47.00;102511.38;4880671;28;113276;-72
2021/04/04 10:26:07;;;;;;;9.85;2.78;;;;;;;11.54;47.24;102513.91;4906819;28;123450;-72
2021/04/04 10:28:45;;;;;;;9.20;3.15;;;;;;;11.58;46.90;102509.41;4889252;28;124170;-72
2021/04/04 10:31:14;;;;;;;7.85;2.80;;;;;;;11.61;46.50;102509.38;4890980;28;114629;-72
2021/04/04 10:33:40;;;;;;;9.07;3.05;;;;;;;11.65;46.76;102497.78;4892111;28;113982;-72
2021/04/04 10:36:24;;;;;;;7.60;3.30;;;;;;;11.74;46.62;102494.91;4895173;28;124033;-72
2021/04/04 10:38:52;;;;;;;10.95;3.72;;;;;;;11.77;46.57;102497.50;4902355;28;123845;-72
2021/04/04 10:41:37;;;;;;;10.82;3.13;;;;;;;11.80;46.57;102493.88;4906370;28;114938;-72
2021/04/04 10:44:07;;;;;;;;;;;;;;;11.85;46.29;102487.56;4889789;28;114233;-72
2021/04/04 10:46:35;;;;;;;10.27;3.67;;;;;;;11.88;46.05;102487.50;4903820;28;124207;-72
2021/04/04 10:49:04;;;;;;;8.02;3.40;;;;;;;11.90;46.04;102483.94;4893587;28;124145;-72
2021/04/04 10:51:31;;;;;;;7.70;3.40;;;;;;;11.93;45.97;102475.91;4892946;28;115601;-72
2021/04/04 10:53:59;;;;;;;9.23;3.53;;;;;;;11.97;46.13;102469.63;4905848;28;114121;-72
2021/04/04 10:56:27;;;;;;;8.68;3.70;;;;;;;12.00;46.14;102466.91;4910917;28;124125;-72
2021/04/04 10:58:54;;;;;;;10.75;3.70;;;;;;;12.06;45.84;102469.38;4903839;28;123815;-71
2021/04/04 11:01:23;;;;;;;8.88;3.72;;;;;;;12.12;46.15;102463.91;4908609;28;115580;-72
2021/04/04 11:03:50;;;;;;;7.15;3.35;;;;;;;12.17;46.02;102470.00;4905250;28;115333;-72
2021/04/04 11:06:17;;;;;;;8.48;3.60;;;;;;;12.21;45.63;102460.16;4913535;28;123812;-72
2021/04/04 11:08:44;;;;;;;9.00;3.88;;;;;;;12.27;45.91;102463.50;4905344;28;123962;-72
2021/04/04 11:11:13;;;;;;;8.82;3.72;;;;;;;12.35;45.57;102459.78;4896247;28;114603;-72
2021/04/04 11:13:44;;;;;;;10.75;3.80;;;;;;;12.42;45.48;102456.06;4913749;28;113241;-72
2021/04/04 11:16:15;;;;;;;10.02;4.15;;;;;;;12.48;45.47;102455.88;4899149;28;124160;-72
2021/04/04 11:18:47;;;;;;;9.23;4.10;;;;;;;12.51;45.21;102450.50;4909819;28;123851;-72
2021/04/04 11:21:20;;;;;;;9.23;4.20;;;;;;;12.50;45.17;102448.75;4903819;28;115295;-72
2021/04/04 11:23:52;;;;;;;12.55;3.80;;;;;;;12.52;45.05;102446.91;4897505;28;114071;-72
2021/04/04 11:26:22;;;;;;;11.77;4.32;;;;;;;12.51;44.97;102438.97;4900926;28;123983;-72
2021/04/04 11:29:15;;;;;;;13.02;4.32;;;;;;;12.48;44.82;102449.72;4924983;28;123077;-72
2021/04/04 11:31:44;;;;;;;12.45;4.47;;;;;;;12.44;44.99;102443.59;4914789;28;113625;-71
2021/04/04 11:34:28;;;;;;;13.18;4.68;;;;;;;12.36;44.52;102434.97;4894842;28;114333;-72
2021/04/04 11:36:54;;;;;;;8.77;4.90;;;;;;;12.34;44.85;102442.09;4908071;28;123630;-71
2021/04/04 11:39:21;;;;;;;11.65;4.50;;;;;;;12.35;44.85;102433.22;4903399;28;124624;-71
2021/04/04 11:42:01;;;;;;;15.30;4.95;;;;;;;12.35;45.18;102418.13;4901994;28;113264;-72
2021/04/04 11:44:40;;;;;;;9.13;4.80;;;;;;;12.41;44.81;102423.31;4895285;28;114402;-72
2021/04/04 11:47:16;;;;;;;11.60;4.80;;;;;;;12.46;44.85;102425.84;4905004;28;123294;-71
2021/04/04 11:49:48;;;;;;;10.68;4.95;;;;;;;12.49;44.88;102417.78;4917951;28;122892;-71